Terminal Aerodrome Forecast
Issued by NWS

Home | Current Version | Previous Version | Text Only | Print | Product List | Glossary On
Versions: 1 2 3 4 5 6 7 8 9 10 11 12 13 14 15 16 17 18 19 20 21 22
000
FTUS45 KRIW 291100
TAFPNA
TAF
KPNA 291134Z 2912/3012 30006KT P6SM VCSH SCT060 BKN090
     FM291900 VRB10G15KT P6SM VCTS FEW035 OVC070CB
     FM300200 VRB10G15KT P6SM -SHRA OVC060
     FM300400 VRB06KT P6SM VCSH SCT060 BKN100
      AMD LTD TO CLD VIS AND WIND=

USA.gov is the U.S. government's official web portal to all federal, state and local government web resources and services.